createdAt,value
2022-08-19T00:00:59.806Z,8.80
2022-08-19T00:03:26.394Z,8.97
2022-08-19T00:05:52.902Z,9.30
2022-08-19T00:08:19.362Z,9.33
2022-08-19T00:10:46.889Z,9.70
2022-08-19T00:13:13.443Z,9.53
2022-08-19T00:15:40.093Z,9.80
2022-08-19T00:18:06.775Z,9.20
2022-08-19T00:20:33.452Z,9.47
2022-08-19T00:22:59.985Z,9.97
2022-08-19T00:25:30.682Z,10.77
2022-08-19T00:27:59.869Z,9.47
2022-08-19T00:30:28.771Z,9.90
2022-08-19T00:32:58.244Z,9.63
2022-08-19T00:35:24.985Z,9.67
2022-08-19T00:37:51.589Z,10.67
2022-08-19T00:40:19.207Z,10.50
2022-08-19T00:42:46.031Z,10.13
2022-08-19T00:45:19.244Z,8.87
2022-08-19T00:47:46.239Z,9.97
2022-08-19T00:50:16.550Z,9.90
2022-08-19T00:52:46.337Z,9.87
2022-08-19T00:55:22.543Z,9.43
2022-08-19T00:57:56.892Z,9.30
2022-08-19T01:00:25.511Z,9.60
2022-08-19T01:02:53.304Z,9.20
2022-08-19T01:05:26.291Z,10.07
2022-08-19T01:07:52.761Z,9.80
2022-08-19T01:10:22.250Z,9.67
2022-08-19T01:12:49.965Z,9.47
2022-08-19T01:15:19.912Z,10.07
2022-08-19T01:17:47.121Z,9.73
2022-08-19T01:20:18.001Z,9.90
2022-08-19T01:22:48.599Z,9.07
2022-08-19T01:25:16.981Z,10.00
2022-08-19T01:27:48.610Z,11.13
2022-08-19T01:30:20.123Z,9.53
2022-08-19T01:32:47.065Z,9.80
2022-08-19T01:35:14.901Z,9.07
2022-08-19T01:37:53.475Z,10.37
2022-08-19T01:40:22.104Z,9.47
2022-08-19T01:42:51.873Z,9.90
2022-08-19T01:45:19.385Z,10.53
2022-08-19T01:47:52.688Z,10.40
2022-08-19T01:50:30.520Z,10.53
2022-08-19T01:53:06.119Z,10.47
2022-08-19T01:55:40.979Z,10.47
2022-08-19T01:58:12.788Z,11.13
2022-08-19T02:00:40.061Z,11.17
2022-08-19T02:03:07.536Z,10.67
2022-08-19T02:05:34.193Z,11.27
2022-08-19T02:08:00.713Z,11.47
2022-08-19T02:10:27.251Z,11.30
2022-08-19T02:12:54.060Z,10.87
2022-08-19T02:15:21.147Z,10.60
2022-08-19T02:17:48.585Z,11.53
2022-08-19T02:20:15.525Z,10.80
2022-08-19T02:22:43.392Z,10.13
2022-08-19T02:25:14.335Z,12.10
2022-08-19T02:27:42.011Z,11.90
2022-08-19T02:30:13.975Z,11.20
2022-08-19T02:32:44.398Z,10.93
2022-08-19T02:35:13.097Z,10.73
2022-08-19T02:37:58.225Z,10.90
2022-08-19T02:40:25.032Z,11.57
2022-08-19T02:42:51.805Z,11.30
2022-08-19T02:45:18.452Z,11.73
2022-08-19T02:47:45.115Z,12.03
2022-08-19T02:50:11.582Z,11.93
2022-08-19T02:52:38.297Z,12.50
2022-08-19T02:55:05.897Z,12.17
2022-08-19T02:57:32.764Z,11.27
2022-08-19T02:59:59.836Z,12.13
2022-08-19T03:02:26.379Z,11.43
2022-08-19T03:04:52.939Z,11.67
2022-08-19T03:07:19.809Z,11.67
2022-08-19T03:09:46.350Z,11.43
2022-08-19T03:12:13.024Z,11.57
2022-08-19T03:14:39.480Z,11.83
2022-08-19T03:17:06.073Z,11.60
2022-08-19T03:19:32.629Z,11.33
2022-08-19T03:21:59.576Z,11.97
2022-08-19T03:24:26.392Z,12.03
2022-08-19T03:26:56.763Z,10.83
2022-08-19T03:29:30.945Z,12.17
2022-08-19T03:32:01.863Z,11.60
2022-08-19T03:34:30.655Z,12.40
2022-08-19T03:37:01.598Z,11.53
2022-08-19T03:39:28.510Z,11.17
2022-08-19T03:42:32.155Z,11.50
2022-08-19T03:44:46.153Z,11.33
2022-08-19T03:47:17.326Z,11.30
2022-08-19T03:49:44.349Z,11.87
2022-08-19T03:52:11.357Z,11.90
2022-08-19T03:54:39.314Z,11.30
2022-08-19T03:57:06.856Z,11.13
2022-08-19T03:59:36.490Z,11.43
2022-08-19T04:02:10.072Z,11.30
2022-08-19T04:04:38.533Z,12.03
2022-08-19T04:07:05.658Z,11.77
2022-08-19T04:09:34.812Z,11.73
2022-08-19T04:12:01.438Z,11.80
2022-08-19T04:14:34.646Z,11.73
2022-08-19T04:17:02.709Z,11.73
2022-08-19T04:19:31.396Z,12.27
2022-08-19T04:21:59.556Z,12.70
2022-08-19T04:24:26.410Z,12.20
2022-08-19T04:26:52.934Z,11.53
2022-08-19T04:29:22.879Z,11.90
2022-08-19T04:31:49.729Z,11.70
2022-08-19T04:34:17.896Z,11.53
2022-08-19T04:36:45.771Z,11.47
2022-08-19T04:39:15.738Z,10.60
2022-08-19T04:42:00.971Z,10.93
2022-08-19T04:44:28.097Z,11.17
2022-08-19T04:46:54.693Z,11.30
2022-08-19T04:49:25.570Z,11.43
2022-08-19T04:51:55.290Z,11.37
2022-08-19T04:54:37.686Z,11.77
2022-08-19T04:57:08.529Z,11.83
2022-08-19T04:59:36.362Z,11.27
2022-08-19T05:02:03.839Z,12.13
2022-08-19T05:04:32.033Z,11.20
2022-08-19T05:07:00.698Z,11.00
2022-08-19T05:09:28.658Z,10.87
2022-08-19T05:12:15.397Z,11.47
2022-08-19T05:14:42.029Z,10.90
2022-08-19T05:17:26.484Z,10.93
2022-08-19T05:20:12.358Z,10.50
2022-08-19T05:22:39.062Z,11.10
2022-08-19T05:25:13.360Z,11.67
2022-08-19T05:27:41.249Z,10.97
2022-08-19T05:30:08.312Z,10.77
2022-08-19T05:32:36.059Z,11.47
2022-08-19T05:35:02.678Z,11.47
2022-08-19T05:37:29.446Z,10.60
2022-08-19T05:39:56.618Z,10.50
2022-08-19T05:42:24.292Z,9.90
2022-08-19T05:44:51.812Z,10.17
2022-08-19T05:47:20.691Z,10.30
2022-08-19T05:49:48.315Z,10.27
2022-08-19T05:52:16.918Z,10.37
2022-08-19T05:54:51.063Z,10.00
2022-08-19T05:57:21.903Z,9.93
2022-08-19T05:59:52.702Z,9.37
2022-08-19T06:02:20.382Z,9.00
2022-08-19T06:04:47.188Z,9.13
2022-08-19T06:07:13.717Z,10.10
2022-08-19T06:09:41.284Z,9.90
2022-08-19T06:12:10.460Z,9.20
2022-08-19T06:14:40.118Z,8.77
2022-08-19T06:17:09.133Z,8.90
2022-08-19T06:19:40.661Z,9.53
2022-08-19T06:22:08.372Z,8.47
2022-08-19T06:24:36.497Z,8.87
2022-08-19T06:27:06.557Z,7.87
2022-08-19T06:29:33.512Z,7.90
2022-08-19T06:32:01.838Z,8.33
2022-08-19T06:34:30.673Z,8.70
2022-08-19T06:37:02.244Z,7.37
2022-08-19T06:39:32.242Z,7.50
2022-08-19T06:42:01.433Z,7.90
2022-08-19T06:44:40.579Z,7.22
2022-08-19T06:47:14.954Z,6.97
2022-08-19T06:49:50.692Z,7.87
2022-08-19T06:52:17.342Z,6.97
2022-08-19T06:54:53.692Z,8.43
2022-08-19T06:57:25.059Z,8.45
2022-08-19T06:59:51.889Z,7.97
2022-08-19T07:04:45.231Z,8.05
2022-08-19T07:07:21.076Z,8.82
2022-08-19T07:09:58.399Z,8.60
2022-08-19T07:12:28.210Z,8.63
2022-08-19T07:14:57.668Z,7.85
2022-08-19T07:17:24.257Z,7.95
2022-08-19T07:19:51.306Z,7.72
2022-08-19T07:22:21.769Z,8.10
2022-08-19T07:24:51.149Z,7.57
2022-08-19T07:27:24.150Z,7.57
2022-08-19T07:29:56.252Z,7.93
2022-08-19T07:32:27.375Z,7.40
2022-08-19T07:34:54.228Z,7.15
2022-08-19T07:37:20.814Z,7.25
2022-08-19T07:39:48.104Z,7.43
2022-08-19T07:42:15.534Z,7.45
2022-08-19T07:44:43.110Z,7.32
2022-08-19T07:47:47.687Z,7.03
2022-08-19T07:50:08.073Z,6.68
2022-08-19T07:52:35.873Z,7.05
2022-08-19T07:55:04.814Z,7.40
2022-08-19T07:57:31.820Z,7.65
2022-08-19T07:59:58.595Z,6.70
2022-08-19T08:02:25.169Z,7.47
2022-08-19T08:05:10.217Z,7.22
2022-08-19T08:07:55.716Z,7.72
2022-08-19T08:10:24.327Z,8.05
2022-08-19T08:13:09.363Z,6.70
2022-08-19T08:15:43.113Z,7.30
2022-08-19T08:18:11.864Z,7.50
2022-08-19T08:20:38.712Z,6.85
2022-08-19T08:23:23.405Z,7.57
2022-08-19T08:25:50.166Z,7.70
2022-08-19T08:28:17.966Z,7.47
2022-08-19T08:30:48.946Z,6.97
2022-08-19T08:33:34.185Z,7.63
2022-08-19T08:36:08.198Z,7.47
2022-08-19T08:38:39.618Z,7.75
2022-08-19T08:41:28.861Z,7.57
2022-08-19T08:43:58.221Z,7.80
2022-08-19T08:46:39.094Z,8.93
2022-08-19T08:49:09.767Z,8.30
2022-08-19T08:54:14.828Z,8.02
2022-08-19T08:56:45.717Z,7.75
2022-08-19T08:59:35.630Z,8.03
2022-08-19T09:02:02.534Z,8.50
2022-08-19T09:04:29.412Z,8.10
2022-08-19T09:07:01.774Z,8.60
2022-08-19T09:09:48.339Z,8.73
2022-08-19T09:12:44.317Z,9.20
2022-08-19T09:15:14.786Z,7.68
2022-08-19T09:17:41.446Z,8.10
2022-08-19T09:20:23.921Z,8.25
2022-08-19T09:22:52.824Z,7.55
2022-08-19T09:25:24.665Z,7.70
2022-08-19T09:27:55.978Z,7.65
2022-08-19T09:30:42.080Z,7.65
2022-08-19T09:33:09.048Z,7.72
2022-08-19T09:35:49.522Z,7.00
2022-08-19T09:38:19.801Z,7.10
2022-08-19T09:40:46.320Z,6.43
2022-08-19T09:43:13.577Z,7.50
2022-08-19T09:45:40.893Z,7.25
2022-08-19T09:48:07.492Z,7.32
2022-08-19T09:50:39.351Z,7.28
2022-08-19T09:53:18.770Z,7.38
2022-08-19T09:55:45.531Z,6.63
2022-08-19T09:58:12.944Z,7.00
2022-08-19T10:00:39.761Z,7.15
2022-08-19T10:03:07.150Z,7.05
2022-08-19T10:05:50.392Z,7.05
2022-08-19T10:08:27.449Z,6.45
2022-08-19T10:10:54.408Z,7.50
2022-08-19T10:13:24.614Z,6.47
2022-08-19T10:15:51.746Z,7.65
2022-08-19T10:18:19.989Z,7.20
2022-08-19T10:20:52.744Z,7.07
2022-08-19T10:23:21.548Z,7.00
2022-08-19T10:25:48.935Z,6.35
2022-08-19T10:28:16.083Z,6.25
2022-08-19T10:30:46.917Z,6.63
2022-08-19T10:33:15.104Z,6.57
2022-08-19T10:35:42.738Z,6.40
2022-08-19T10:38:31.367Z,6.32
2022-08-19T10:40:59.545Z,7.07
2022-08-19T10:43:26.421Z,6.78
2022-08-19T10:45:58.741Z,6.82
2022-08-19T10:48:25.418Z,7.05
2022-08-19T10:51:10.640Z,6.22
2022-08-19T10:53:50.332Z,6.53
2022-08-19T10:56:35.741Z,6.97
2022-08-19T10:59:04.139Z,6.30
2022-08-19T11:01:34.005Z,6.78
2022-08-19T11:04:02.267Z,7.15
2022-08-19T11:06:28.979Z,7.13
2022-08-19T11:08:55.859Z,6.68
2022-08-19T11:11:23.585Z,6.15
2022-08-19T11:13:50.934Z,7.03
2022-08-19T11:16:22.805Z,6.80
2022-08-19T11:18:51.721Z,6.70
2022-08-19T11:21:21.955Z,6.68
2022-08-19T11:23:51.252Z,6.60
2022-08-19T11:26:18.363Z,6.95
2022-08-19T11:28:45.525Z,7.10
2022-08-19T11:31:17.029Z,6.78
2022-08-19T11:33:47.590Z,7.63
2022-08-19T11:36:14.992Z,6.88
2022-08-19T11:38:41.807Z,6.43
2022-08-19T11:41:08.837Z,7.43
2022-08-19T11:43:37.652Z,7.35
2022-08-19T11:46:09.118Z,7.30
2022-08-19T11:48:36.491Z,7.70
2022-08-19T11:51:09.608Z,7.28
2022-08-19T11:53:36.936Z,7.28
2022-08-19T11:56:04.913Z,7.55
2022-08-19T11:58:31.572Z,7.07
2022-08-19T12:00:58.511Z,6.65
2022-08-19T12:03:25.253Z,7.15
2022-08-19T12:05:51.885Z,7.50
2022-08-19T12:08:19.230Z,7.00
2022-08-19T12:10:46.570Z,6.65
2022-08-19T12:13:19.612Z,6.97
2022-08-19T12:15:47.702Z,6.57
2022-08-19T12:18:16.943Z,7.13
2022-08-19T12:20:44.087Z,7.25
2022-08-19T12:23:11.304Z,7.32
2022-08-19T12:25:44.675Z,7.05
2022-08-19T12:28:11.162Z,6.72
2022-08-19T12:30:39.100Z,6.78
2022-08-19T12:33:05.800Z,6.90
2022-08-19T12:35:32.809Z,6.35
2022-08-19T12:38:01.024Z,6.43
2022-08-19T12:40:27.770Z,6.43
2022-08-19T12:42:55.023Z,6.82
2022-08-19T12:45:21.716Z,6.40
2022-08-19T12:47:52.133Z,6.78
2022-08-19T12:50:22.429Z,6.25
2022-08-19T12:52:49.384Z,6.68
2022-08-19T12:55:15.899Z,7.28
2022-08-19T12:57:42.380Z,6.85
2022-08-19T13:00:14.803Z,6.53
2022-08-19T13:02:47.549Z,6.05
2022-08-19T13:05:16.978Z,7.20
2022-08-19T13:07:44.861Z,6.60
2022-08-19T13:10:13.550Z,6.50
2022-08-19T13:12:41.928Z,6.78
2022-08-19T13:15:10.638Z,6.05
2022-08-19T13:17:38.114Z,6.22
2022-08-19T13:20:07.150Z,6.88
2022-08-19T13:22:33.694Z,6.38
2022-08-19T13:25:00.265Z,6.38
2022-08-19T13:27:26.730Z,6.65
2022-08-19T13:30:11.832Z,6.07
2022-08-19T13:32:57.273Z,5.80
2022-08-19T13:35:24.029Z,5.65
2022-08-19T13:37:50.658Z,6.00
2022-08-19T13:40:23.801Z,6.03
2022-08-19T13:42:52.313Z,6.43
2022-08-19T13:45:22.257Z,6.05
2022-08-19T13:47:51.484Z,6.15
2022-08-19T13:50:22.870Z,6.07
2022-08-19T13:52:49.874Z,6.53
2022-08-19T13:55:16.512Z,6.07
2022-08-19T13:57:53.868Z,5.82
2022-08-19T14:00:22.573Z,5.72
2022-08-19T14:02:52.391Z,6.40
2022-08-19T14:05:19.456Z,6.72
2022-08-19T14:07:46.374Z,5.68
2022-08-19T14:10:14.014Z,5.15
2022-08-19T14:12:40.889Z,6.50
2022-08-19T14:15:09.457Z,5.88
2022-08-19T14:17:39.102Z,6.25
2022-08-19T14:20:10.988Z,6.30
2022-08-19T14:22:39.556Z,6.72
2022-08-19T14:25:08.661Z,6.05
2022-08-19T14:27:36.540Z,5.50
2022-08-19T14:30:04.934Z,5.90
2022-08-19T14:32:31.622Z,5.65
2022-08-19T14:34:58.696Z,5.80
2022-08-19T14:37:25.182Z,5.50
2022-08-19T14:39:51.836Z,6.13
2022-08-19T14:42:18.568Z,5.97
2022-08-19T14:44:45.054Z,5.68
2022-08-19T14:47:11.630Z,5.90
2022-08-19T14:49:43.002Z,5.55
2022-08-19T14:52:11.509Z,5.32
2022-08-19T14:54:38.055Z,5.35
2022-08-19T14:57:04.597Z,5.35
2022-08-19T14:59:31.076Z,4.75
2022-08-19T15:01:58.739Z,5.25
2022-08-19T15:04:45.236Z,5.10
2022-08-19T15:07:11.814Z,4.80
2022-08-19T15:09:38.723Z,5.07
2022-08-19T15:12:05.566Z,5.32
2022-08-19T15:14:35.798Z,4.70
2022-08-19T15:17:03.690Z,5.13
2022-08-19T15:19:31.549Z,5.10
2022-08-19T15:21:58.563Z,4.88
2022-08-19T15:24:26.148Z,4.72
2022-08-19T15:26:54.536Z,4.68
2022-08-19T15:29:21.517Z,5.30
2022-08-19T15:31:48.027Z,4.82
2022-08-19T15:34:15.675Z,4.93
2022-08-19T15:36:42.306Z,4.45
2022-08-19T15:39:10.150Z,4.45
2022-08-19T15:41:37.571Z,4.80
2022-08-19T15:44:10.987Z,4.85
2022-08-19T15:46:39.963Z,4.45
2022-08-19T15:49:07.381Z,4.65
2022-08-19T15:51:35.584Z,4.47
2022-08-19T15:54:13.849Z,4.63
2022-08-19T15:56:58.902Z,4.85
2022-08-19T15:59:47.440Z,4.65
2022-08-19T16:02:33.156Z,4.43
2022-08-19T16:05:18.732Z,4.85
2022-08-19T16:07:45.550Z,4.72
2022-08-19T16:10:25.923Z,5.03
2022-08-19T16:12:54.303Z,4.65
2022-08-19T16:15:21.073Z,4.50
2022-08-19T16:17:55.479Z,4.72
2022-08-19T16:20:24.640Z,5.15
2022-08-19T16:22:52.549Z,4.88
2022-08-19T16:25:19.039Z,4.63
2022-08-19T16:28:06.129Z,5.00
2022-08-19T16:30:32.563Z,4.80
2022-08-19T16:32:59.234Z,6.13
2022-08-19T16:35:25.714Z,4.70
2022-08-19T16:37:52.198Z,5.18
2022-08-19T16:40:19.204Z,4.57
2022-08-19T16:42:45.757Z,4.82
2022-08-19T16:45:12.800Z,5.25
2022-08-19T16:47:39.405Z,5.07
2022-08-19T16:50:07.575Z,4.63
2022-08-19T16:52:34.879Z,4.68
2022-08-19T16:55:01.568Z,4.65
2022-08-19T16:57:28.062Z,4.90
2022-08-19T16:59:54.640Z,4.82
2022-08-19T17:02:23.395Z,5.07
2022-08-19T17:04:58.528Z,4.80
2022-08-19T17:07:26.587Z,4.25
2022-08-19T17:09:53.206Z,5.30
2022-08-19T17:12:19.720Z,4.78
2022-08-19T17:14:46.397Z,4.38
2022-08-19T17:17:13.011Z,5.00
2022-08-19T17:19:41.839Z,4.53
2022-08-19T17:22:10.204Z,4.20
2022-08-19T17:24:38.103Z,4.35
2022-08-19T17:27:07.481Z,4.82
2022-08-19T17:29:34.225Z,4.75
2022-08-19T17:32:01.828Z,4.70
2022-08-19T17:34:28.358Z,4.30
2022-08-19T17:36:57.202Z,4.75
2022-08-19T17:39:25.340Z,4.40
2022-08-19T17:41:52.028Z,4.70
2022-08-19T17:44:19.030Z,4.87
2022-08-19T17:46:46.787Z,4.95
2022-08-19T17:49:14.408Z,5.20
2022-08-19T17:51:45.587Z,4.85
2022-08-19T17:54:15.585Z,5.35
2022-08-19T17:56:43.292Z,4.55
2022-08-19T17:59:13.830Z,4.82
2022-08-19T18:01:53.950Z,4.80
2022-08-19T18:04:23.292Z,4.57
2022-08-19T18:06:52.982Z,4.53
2022-08-19T18:09:23.912Z,4.70
2022-08-19T18:11:52.766Z,5.20
2022-08-19T18:14:20.713Z,5.28
2022-08-19T18:16:47.304Z,5.05
2022-08-19T18:19:13.882Z,5.13
2022-08-19T18:21:40.871Z,5.38
2022-08-19T18:24:08.021Z,4.70
2022-08-19T18:26:34.891Z,4.90
2022-08-19T18:29:02.004Z,5.25
2022-08-19T18:31:29.158Z,5.22
2022-08-19T18:33:55.826Z,5.03
2022-08-19T18:36:37.727Z,4.85
2022-08-19T18:39:29.414Z,4.97
2022-08-19T18:42:14.793Z,5.17
2022-08-19T18:45:00.414Z,4.72
2022-08-19T18:47:46.298Z,4.80
2022-08-19T18:50:13.792Z,5.20
2022-08-19T18:52:40.788Z,5.97
2022-08-19T18:55:08.341Z,5.38
2022-08-19T18:57:35.366Z,4.82
2022-08-19T19:00:04.434Z,4.95
2022-08-19T19:02:38.498Z,5.20
2022-08-19T19:05:07.691Z,5.10
2022-08-19T19:07:34.894Z,5.30
2022-08-19T19:10:01.722Z,5.25
2022-08-19T19:12:29.237Z,4.97
2022-08-19T19:14:56.343Z,5.30
2022-08-19T19:17:27.182Z,5.05
2022-08-19T19:19:53.840Z,5.10
2022-08-19T19:22:22.032Z,5.17
2022-08-19T19:24:49.105Z,5.40
2022-08-19T19:27:18.569Z,5.13
2022-08-19T19:29:48.474Z,5.10
2022-08-19T19:32:23.879Z,4.68
2022-08-19T19:34:50.657Z,5.00
2022-08-19T19:37:17.343Z,4.93
2022-08-19T19:39:45.935Z,5.57
2022-08-19T19:42:19.824Z,4.63
2022-08-19T19:44:48.904Z,4.78
2022-08-19T19:47:16.116Z,4.80
2022-08-19T19:50:03.782Z,5.15
2022-08-19T19:52:29.688Z,5.03
2022-08-19T19:54:56.991Z,4.60
2022-08-19T19:57:23.789Z,4.93
2022-08-19T19:59:51.407Z,5.38
2022-08-19T20:02:18.299Z,4.60
2022-08-19T20:04:45.032Z,4.83
2022-08-19T20:07:11.705Z,5.33
2022-08-19T20:09:58.272Z,4.90
2022-08-19T20:12:24.803Z,4.38
2022-08-19T20:14:51.345Z,5.10
2022-08-19T20:17:20.406Z,5.00
2022-08-19T20:19:47.363Z,4.90
2022-08-19T20:22:13.928Z,4.67
2022-08-19T20:24:42.339Z,4.30
2022-08-19T20:27:09.268Z,4.63
2022-08-19T20:29:39.650Z,4.80
2022-08-19T20:32:09.512Z,4.80
2022-08-19T20:34:37.145Z,4.83
2022-08-19T20:37:03.806Z,5.00
2022-08-19T20:39:30.257Z,5.37
2022-08-19T20:41:56.879Z,5.27
2022-08-19T20:44:25.403Z,4.90
2022-08-19T20:46:55.403Z,4.70
2022-08-19T20:49:26.946Z,4.28
2022-08-19T20:51:54.799Z,4.77
2022-08-19T20:54:21.689Z,4.60
2022-08-19T20:56:48.258Z,4.50
2022-08-19T20:59:14.918Z,4.45
2022-08-19T21:01:41.388Z,4.43
2022-08-19T21:04:07.968Z,4.20
2022-08-19T21:06:34.574Z,4.40
2022-08-19T21:09:01.040Z,4.93
2022-08-19T21:11:27.587Z,5.00
2022-08-19T21:13:54.169Z,4.80
2022-08-19T21:16:20.607Z,4.63
2022-08-19T21:18:47.789Z,4.70
2022-08-19T21:21:14.446Z,5.00
2022-08-19T21:23:41.002Z,4.83
2022-08-19T21:26:09.067Z,4.67
2022-08-19T21:28:36.701Z,4.73
2022-08-19T21:31:05.342Z,5.63
2022-08-19T21:33:32.238Z,4.43
2022-08-19T21:36:00.178Z,5.00
2022-08-19T21:38:27.167Z,4.97
2022-08-19T21:40:54.043Z,4.10
2022-08-19T21:43:20.645Z,5.77
2022-08-19T21:45:47.564Z,4.77
2022-08-19T21:48:14.817Z,4.70
2022-08-19T21:50:42.566Z,4.93
2022-08-19T21:53:11.284Z,4.63
2022-08-19T21:55:40.416Z,4.63
2022-08-19T21:58:06.987Z,4.10
2022-08-19T22:00:34.625Z,5.30
2022-08-19T22:03:01.377Z,4.90
2022-08-19T22:05:28.385Z,4.20
2022-08-19T22:07:59.819Z,4.60
2022-08-19T22:10:32.537Z,4.97
2022-08-19T22:12:59.225Z,4.43
2022-08-19T22:15:27.265Z,4.30
2022-08-19T22:17:54.440Z,4.30
2022-08-19T22:20:24.254Z,4.20
2022-08-19T22:22:56.974Z,4.63
2022-08-19T22:25:35.942Z,4.73
2022-08-19T22:28:04.715Z,4.27
2022-08-19T22:30:33.766Z,4.13
2022-08-19T22:33:03.675Z,4.67
2022-08-19T22:35:32.189Z,4.53
2022-08-19T22:37:59.681Z,5.00
2022-08-19T22:40:28.743Z,5.17
2022-08-19T22:43:03.546Z,5.30
2022-08-19T22:45:30.567Z,4.23
2022-08-19T22:47:58.062Z,4.60
2022-08-19T22:50:25.068Z,4.50
2022-08-19T22:52:58.741Z,4.97
2022-08-19T22:55:26.757Z,4.70
2022-08-19T22:57:53.808Z,4.77
2022-08-19T23:00:21.772Z,5.10
2022-08-19T23:02:51.855Z,4.77
2022-08-19T23:05:20.843Z,4.60
2022-08-19T23:07:52.547Z,5.00
2022-08-19T23:10:27.294Z,4.70
2022-08-19T23:12:56.861Z,4.43
2022-08-19T23:15:26.014Z,4.67
2022-08-19T23:17:54.072Z,4.83
2022-08-19T23:20:21.194Z,4.73
2022-08-19T23:22:49.591Z,4.90
2022-08-19T23:25:18.719Z,4.50
2022-08-19T23:28:03.762Z,5.10
2022-08-19T23:30:31.222Z,4.50
2022-08-19T23:33:10.897Z,4.93
2022-08-19T23:35:40.899Z,5.80
2022-08-19T23:38:08.114Z,5.37
2022-08-19T23:40:37.352Z,4.20
2022-08-19T23:43:07.887Z,4.87
2022-08-19T23:45:41.241Z,4.90
2022-08-19T23:48:17.866Z,5.13
2022-08-19T23:50:45.186Z,4.37
2022-08-19T23:53:13.190Z,4.73
2022-08-19T23:55:42.600Z,4.70
2022-08-19T23:58:09.404Z,4.40
